Time;durP1;ratioP1;P1;durP2;ratioP2;P2;SDS_P1;SDS_P2;PMS_P1;PMS_P2;Temp;Humidity;BMP_temperature;BMP_pressure;BME280_temperature;BME280_humidity;BME280_pressure;Samples;Min_cycle;Max_cycle;Signal;HPM_P1;HPM_P2
2022/11/22 00:00:29;;;;;;;10.57;6.65;;;2.40;72.60;;;;;;6053279;23;114213;-83
2022/11/22 00:02:55;;;;;;;10.07;6.10;;;2.50;72.40;;;;;;6055081;23;114369;-82
2022/11/22 00:05:23;;;;;;;10.20;5.63;;;2.50;72.40;;;;;;6053932;23;116101;-83
2022/11/22 00:07:50;;;;;;;10.05;5.88;;;2.60;72.40;;;;;;6053584;23;115246;-84
2022/11/22 00:10:17;;;;;;;10.85;6.18;;;2.60;72.20;;;;;;6053314;23;114244;-82
2022/11/22 00:12:44;;;;;;;12.25;6.30;;;2.60;72.30;;;;;;6053890;23;114388;-83
2022/11/22 00:15:11;;;;;;;10.10;6.45;;;2.60;72.30;;;;;;6052553;23;114942;-83
2022/11/22 00:17:39;;;;;;;10.32;5.70;;;2.50;72.30;;;;;;6053668;23;114397;-83
2022/11/22 00:20:07;;;;;;;11.45;6.78;;;2.50;72.40;;;;;;6052219;23;114199;-82
2022/11/22 00:22:34;;;;;;;10.13;6.25;;;2.50;72.50;;;;;;6053589;23;114280;-82
2022/11/22 00:25:08;;;;;;;;;;;2.40;72.80;;;;;;6075990;23;115320;-83
2022/11/22 00:27:38;;;;;;;11.30;6.47;;;2.30;72.50;;;;;;6053878;23;114532;-82
2022/11/22 00:30:06;;;;;;;10.75;6.57;;;2.30;72.80;;;;;;6078510;23;114280;-82
2022/11/22 00:32:33;;;;;;;12.18;7.93;;;2.30;72.70;;;;;;6087728;23;114061;-82
2022/11/22 00:35:02;;;;;;;12.55;7.47;;;2.30;72.80;;;;;;6064049;23;115212;-83
2022/11/22 00:37:29;;;;;;;11.05;6.30;;;2.40;73.00;;;;;;6077337;23;114933;-83
2022/11/22 00:39:56;;;;;;;12.85;7.97;;;2.30;73.10;;;;;;6077698;23;116028;-82
2022/11/22 00:42:24;;;;;;;13.80;8.32;;;2.30;73.10;;;;;;6054839;23;114519;-83
2022/11/22 00:44:53;;;;;;;11.13;7.32;;;2.30;73.10;;;;;;6076180;23;115953;-83
2022/11/22 00:47:20;;;;;;;11.98;7.15;;;2.30;73.20;;;;;;6053429;23;114548;-83
2022/11/22 00:49:46;;;;;;;12.25;7.72;;;2.20;73.20;;;;;;6077612;23;114420;-83
2022/11/22 00:52:13;;;;;;;13.07;7.85;;;2.30;73.20;;;;;;6005748;23;114381;-83
2022/11/22 00:54:40;;;;;;;10.85;7.28;;;2.30;73.20;;;;;;6076634;23;114809;-83
2022/11/22 00:57:08;;;;;;;10.93;7.28;;;2.40;73.20;;;;;;6053724;23;114601;-83
2022/11/22 00:59:35;;;;;;;11.80;6.97;;;2.40;73.10;;;;;;6077392;23;114860;-84
2022/11/22 01:02:02;;;;;;;10.95;7.10;;;2.40;73.10;;;;;;6054854;23;114289;-83
2022/11/22 01:04:29;;;;;;;12.00;7.10;;;2.40;72.90;;;;;;6076270;23;114845;-84
2022/11/22 01:06:56;;;;;;;9.73;5.93;;;2.40;72.80;;;;;;6076200;23;115296;-84
2022/11/22 01:09:23;;;;;;;11.00;6.72;;;2.50;72.70;;;;;;6076268;23;114436;-84
2022/11/22 01:11:50;;;;;;;10.15;6.53;;;2.40;72.60;;;;;;6054127;23;114968;-84
2022/11/22 01:14:18;;;;;;;11.82;6.57;;;2.40;72.60;;;;;;6051306;23;116101;-84
2022/11/22 01:16:45;;;;;;;10.98;6.78;;;2.40;72.60;;;;;;6076214;23;114578;-84
2022/11/22 01:19:12;;;;;;;11.32;6.65;;;2.30;72.60;;;;;;6052657;23;114542;-85
2022/11/22 01:21:39;;;;;;;10.73;6.25;;;2.30;72.60;;;;;;6077392;23;115089;-85
2022/11/22 01:24:06;;;;;;;11.57;7.88;;;2.30;72.60;;;;;;6050924;23;117818;-84
2022/11/22 01:26:33;;;;;;;10.63;6.60;;;2.30;72.60;;;;;;6052486;23;114652;-84
2022/11/22 01:29:00;;;;;;;9.50;6.30;;;2.30;72.70;;;;;;6077032;23;114336;-85
2022/11/22 01:31:28;;;;;;;11.93;6.68;;;2.30;72.60;;;;;;6054065;23;114320;-84
2022/11/22 01:33:56;;;;;;;11.25;6.57;;;2.30;72.50;;;;;;6075275;23;115833;-84
2022/11/22 01:36:24;;;;;;;12.15;6.78;;;2.30;72.50;;;;;;6075839;23;114765;-84
2022/11/22 01:38:51;;;;;;;11.95;7.18;;;2.20;72.60;;;;;;6054263;23;114382;-85
2022/11/22 01:41:18;;;;;;;10.95;6.55;;;2.20;72.60;;;;;;6053956;23;114342;-84
2022/11/22 01:43:45;;;;;;;10.63;5.65;;;2.20;72.60;;;;;;6053119;23;115004;-85
2022/11/22 01:46:26;;;;;;;8.02;4.75;;;2.20;72.70;;;;;;6051723;23;114536;-82
2022/11/22 01:49:00;;;;;;;10.43;6.78;;;2.20;72.60;;;;;;6052720;23;115848;-83
2022/11/22 01:51:36;;;;;;;9.52;6.13;;;2.10;72.70;;;;;;6077826;23;115503;-83
2022/11/22 01:54:08;;;;;;;9.23;5.53;;;2.10;72.70;;;;;;6027278;23;117844;-82
2022/11/22 01:56:35;;;;;;;11.98;6.25;;;2.20;72.80;;;;;;6075002;23;115227;-82
2022/11/22 01:59:04;;;;;;;9.05;5.97;;;2.10;72.70;;;;;;6076656;23;114302;-81
2022/11/22 02:01:31;;;;;;;7.45;4.95;;;2.10;72.80;;;;;;6076674;23;114287;-84
2022/11/22 02:03:58;;;;;;;9.40;6.10;;;2.10;72.80;;;;;;6052951;23;114711;-81
2022/11/22 02:06:30;;;;;;;11.70;5.85;;;2.10;72.90;;;;;;6050412;23;117048;-81
2022/11/22 02:09:10;;;;;;;9.43;6.18;;;2.10;72.90;;;;;;6052758;23;114311;-81
2022/11/22 02:11:42;;;;;;;10.02;6.30;;;2.10;73.00;;;;;;6028779;23;114926;-82
2022/11/22 02:14:10;;;;;;;10.32;6.18;;;2.00;73.10;;;;;;6051534;23;114788;-82
2022/11/22 02:16:37;;;;;;;7.90;5.55;;;2.00;73.10;;;;;;6054577;23;115459;-83
2022/11/22 02:19:05;;;;;;;9.23;5.60;;;2.00;73.10;;;;;;6096775;23;114288;-83
2022/11/22 02:21:32;;;;;;;7.18;3.97;;;2.00;73.30;;;;;;6055487;23;114537;-82
2022/11/22 02:24:05;;;;;;;11.57;6.53;;;2.00;73.20;;;;;;6075714;23;115324;-82
2022/11/22 02:26:32;;;;;;;9.50;6.37;;;1.90;73.40;;;;;;6052812;23;114631;-82
2022/11/22 02:29:01;;;;;;;11.23;6.93;;;2.00;73.40;;;;;;6055269;23;114157;-82
2022/11/22 02:31:42;;;;;;;9.40;5.18;;;2.00;73.50;;;;;;6053282;23;114266;-82
2022/11/22 02:34:10;;;;;;;10.38;6.53;;;2.00;73.40;;;;;;6053756;23;114865;-83
2022/11/22 02:36:43;;;;;;;10.20;6.80;;;2.10;73.50;;;;;;6028380;23;116946;-83
2022/11/22 02:39:11;;;;;;;11.35;6.72;;;2.00;73.30;;;;;;6055249;23;114182;-82
2022/11/22 02:41:38;;;;;;;12.38;6.25;;;2.00;73.30;;;;;;6078187;23;114444;-83
2022/11/22 02:44:06;;;;;;;10.38;5.55;;;2.00;73.30;;;;;;6051551;23;114745;-83
2022/11/22 02:46:33;;;;;;;9.52;5.93;;;2.10;73.30;;;;;;6052192;23;114638;-83
2022/11/22 02:49:00;;;;;;;11.50;6.55;;;2.10;73.20;;;;;;6054472;23;114190;-82
2022/11/22 02:51:27;;;;;;;11.30;7.05;;;2.10;73.20;;;;;;6029199;23;114296;-82
2022/11/22 02:53:55;;;;;;;11.88;7.57;;;2.10;73.20;;;;;;6076526;23;114754;-82
2022/11/22 02:56:22;;;;;;;7.60;4.32;;;2.20;73.20;;;;;;6075798;23;114625;-83
2022/11/22 02:58:49;;;;;;;9.93;6.70;;;2.20;73.20;;;;;;6054305;23;114057;-86
2022/11/22 03:01:16;;;;;;;12.60;8.00;;;2.20;73.20;;;;;;6076549;23;114075;-85
2022/11/22 03:03:43;;;;;;;11.38;7.47;;;2.10;73.10;;;;;;6051599;23;115340;-82
2022/11/22 03:06:10;;;;;;;11.45;6.88;;;2.10;73.20;;;;;;6054279;23;114987;-83
2022/11/22 03:08:37;;;;;;;12.30;6.97;;;2.10;73.10;;;;;;6054949;23;114465;-82
2022/11/22 03:11:04;;;;;;;12.10;7.05;;;2.10;73.20;;;;;;6076788;23;114513;-82
2022/11/22 03:13:32;;;;;;;11.60;7.03;;;2.10;73.20;;;;;;6075225;23;114863;-82
2022/11/22 03:15:59;;;;;;;10.27;6.38;;;2.10;73.10;;;;;;6076236;23;114578;-82
2022/11/22 03:18:26;;;;;;;11.43;7.25;;;2.10;73.10;;;;;;6077390;23;114405;-82
2022/11/22 03:20:52;;;;;;;11.13;7.13;;;2.10;73.00;;;;;;6052473;23;114171;-82
2022/11/22 03:23:20;;;;;;;11.93;7.10;;;2.10;73.10;;;;;;6053144;23;117032;-83
2022/11/22 03:25:47;;;;;;;11.27;6.72;;;2.10;73.10;;;;;;6076412;23;114567;-82
2022/11/22 03:28:14;;;;;;;10.95;6.07;;;2.10;73.00;;;;;;6052967;23;114327;-82
2022/11/22 03:30:41;;;;;;;11.88;6.95;;;2.00;73.10;;;;;;6054591;23;114221;-83
2022/11/22 03:33:08;;;;;;;12.57;7.30;;;2.00;73.10;;;;;;6052680;23;115476;-82
2022/11/22 03:35:35;;;;;;;10.85;6.78;;;2.00;73.10;;;;;;6076046;23;114611;-82
2022/11/22 03:38:02;;;;;;;9.60;5.75;;;2.10;73.10;;;;;;6053290;23;114092;-82
2022/11/22 03:40:29;;;;;;;9.70;5.80;;;2.00;73.00;;;;;;6052309;23;114341;-81
2022/11/22 03:43:00;;;;;;;11.45;6.65;;;2.10;73.00;;;;;;6052193;23;115788;-82
2022/11/22 03:45:27;;;;;;;10.82;6.07;;;2.10;73.00;;;;;;6051260;23;117875;-83
2022/11/22 03:47:55;;;;;;;9.82;6.28;;;2.00;73.00;;;;;;6053831;23;114291;-84
2022/11/22 03:50:22;;;;;;;8.82;5.75;;;2.00;73.00;;;;;;6076509;23;114258;-82
2022/11/22 03:52:49;;;;;;;9.50;6.15;;;2.00;72.90;;;;;;6052882;23;114869;-82
2022/11/22 03:55:16;;;;;;;11.65;6.85;;;2.00;72.90;;;;;;6051792;23;114592;-83
2022/11/22 03:57:43;;;;;;;10.20;6.00;;;2.00;72.80;;;;;;6029232;23;114080;-83
2022/11/22 04:00:11;;;;;;;11.35;6.88;;;2.00;72.70;;;;;;6053652;23;115421;-83
2022/11/22 04:02:38;;;;;;;10.57;6.75;;;2.00;72.70;;;;;;6051954;23;114801;-83
2022/11/22 04:05:05;;;;;;;10.55;6.20;;;2.00;72.70;;;;;;6053539;23;114537;-83
2022/11/22 04:07:32;;;;;;;9.77;6.50;;;2.00;72.70;;;;;;6055006;23;114383;-82
2022/11/22 04:10:01;;;;;;;8.70;5.05;;;2.10;72.70;;;;;;6055023;23;114706;-83
2022/11/22 04:12:29;;;;;;;9.15;5.00;;;2.20;72.50;;;;;;6076666;23;114974;-83
2022/11/22 04:15:05;;;;;;;9.52;5.30;;;2.10;72.30;;;;;;6053955;23;115022;-83
2022/11/22 04:17:39;;;;;;;8.75;6.00;;;2.20;72.10;;;;;;6054578;23;114250;-83
2022/11/22 04:23:00;;;;;;;8.57;5.22;;;2.10;71.90;;;;;;6031668;23;114806;-83
2022/11/22 04:25:28;;;;;;;9.40;6.00;;;2.10;71.90;;;;;;6051869;23;118009;-83
2022/11/22 04:27:55;;;;;;;9.80;5.68;;;2.20;71.90;;;;;;6028432;23;114065;-83
2022/11/22 04:33:09;;;;;;;6.88;4.13;;;2.20;71.50;;;;;;6052036;23;114799;-82
2022/11/22 04:35:36;;;;;;;8.05;4.35;;;2.10;71.50;;;;;;6053364;23;114668;-84
2022/11/22 04:38:04;;;;;;;7.38;4.97;;;2.20;71.40;;;;;;6055037;23;114204;-81
2022/11/22 04:40:31;;;;;;;8.50;4.55;;;2.20;71.30;;;;;;6055258;23;114108;-82
2022/11/22 04:45:45;;;;;;;7.35;3.95;;;2.20;71.30;;;;;;6073116;23;115177;-81
2022/11/22 04:48:12;;;;;;;7.90;4.38;;;2.30;71.10;;;;;;6077288;23;114614;-82
2022/11/22 04:53:25;;;;;;;7.95;4.60;;;2.30;70.70;;;;;;6051397;23;118830;-83
2022/11/22 04:55:52;;;;;;;7.25;4.30;;;2.40;70.90;;;;;;6051452;23;115738;-83
2022/11/22 04:58:19;;;;;;;9.60;4.63;;;2.40;70.60;;;;;;6077172;23;114498;-83
2022/11/22 05:00:46;;;;;;;7.00;4.10;;;2.40;70.20;;;;;;6077186;23;114259;-83
2022/11/22 05:03:13;;;;;;;6.97;3.78;;;2.50;70.20;;;;;;6053483;23;115390;-83
2022/11/22 05:05:42;;;;;;;5.75;3.63;;;2.50;70.30;;;;;;6076504;23;115736;-82
2022/11/22 05:08:09;;;;;;;7.15;4.20;;;2.50;70.20;;;;;;6052901;23;114346;-82
2022/11/22 05:13:42;;;;;;;7.38;4.13;;;2.50;69.90;;;;;;6053074;23;117018;-83
2022/11/22 05:16:10;;;;;;;6.57;4.03;;;2.50;69.60;;;;;;6053123;23;114522;-82
2022/11/22 05:18:37;;;;;;;7.25;4.35;;;2.50;69.90;;;;;;6053889;23;114004;-82
2022/11/22 05:21:05;;;;;;;6.60;3.80;;;2.50;69.60;;;;;;6054561;23;114747;-82
2022/11/22 05:26:18;;;;;;;6.20;3.72;;;2.50;69.20;;;;;;6053575;23;117034;-83
2022/11/22 05:28:45;;;;;;;8.50;4.38;;;2.50;69.10;;;;;;6054453;23;114480;-83
2022/11/22 05:31:17;;;;;;;5.03;2.80;;;2.40;69.00;;;;;;6054473;23;114312;-83
2022/11/22 05:33:44;;;;;;;6.75;3.88;;;2.50;68.90;;;;;;6051727;23;115862;-83
2022/11/22 05:36:11;;;;;;;6.85;4.05;;;2.40;68.90;;;;;;6053492;23;114766;-82
2022/11/22 05:38:38;;;;;;;5.82;3.40;;;2.40;69.10;;;;;;6077333;23;114164;-83
2022/11/22 05:41:10;;;;;;;7.18;3.95;;;2.40;69.00;;;;;;6051967;23;114422;-83
2022/11/22 05:43:37;;;;;;;6.50;3.50;;;2.30;69.00;;;;;;6050243;23;115896;-83
2022/11/22 05:46:08;;;;;;;7.15;3.97;;;2.30;69.10;;;;;;6075380;23;114570;-83
2022/11/22 05:48:38;;;;;;;5.90;3.47;;;2.30;69.10;;;;;;6076507;23;114632;-83
2022/11/22 05:51:06;;;;;;;3.72;2.58;;;2.20;69.00;;;;;;6053749;23;114182;-84
2022/11/22 05:53:35;;;;;;;6.68;3.38;;;2.30;69.00;;;;;;6051739;23;114738;-82
2022/11/22 05:56:06;;;;;;;6.65;3.78;;;2.30;68.80;;;;;;6075113;23;115046;-83
2022/11/22 05:58:33;;;;;;;6.25;4.05;;;2.30;68.90;;;;;;6076706;23;114321;-85
2022/11/22 06:01:04;;;;;;;6.55;4.13;;;2.30;68.80;;;;;;6076834;23;114348;-84
2022/11/22 06:03:32;;;;;;;7.45;3.70;;;2.40;68.80;;;;;;6076004;23;114899;-84
2022/11/22 06:05:59;;;;;;;8.23;4.40;;;2.40;68.90;;;;;;6072420;23;114661;-84
2022/11/22 06:08:28;;;;;;;6.68;3.65;;;2.30;68.80;;;;;;6052067;23;114442;-84
2022/11/22 06:10:58;;;;;;;6.45;3.70;;;2.40;68.80;;;;;;6051411;23;114249;-83
2022/11/22 06:13:25;;;;;;;7.47;3.95;;;2.40;68.80;;;;;;6073994;23;114803;-84
2022/11/22 06:15:52;;;;;;;7.20;3.92;;;2.40;68.70;;;;;;6052196;23;116019;-85
2022/11/22 06:18:20;;;;;;;7.10;4.32;;;2.40;68.60;;;;;;6075264;23;115093;-84
2022/11/22 06:20:47;;;;;;;6.55;4.05;;;2.40;68.60;;;;;;6053163;23;114184;-83
2022/11/22 06:23:14;;;;;;;7.40;3.85;;;2.40;68.60;;;;;;6074492;23;114956;-83
2022/11/22 06:25:41;;;;;;;7.50;4.05;;;2.40;68.60;;;;;;6052400;23;114618;-83
2022/11/22 06:28:10;;;;;;;6.95;4.10;;;2.40;68.50;;;;;;6051917;23;114578;-83
2022/11/22 06:30:38;;;;;;;6.70;3.85;;;2.50;68.80;;;;;;6052004;23;114479;-84
2022/11/22 06:33:05;;;;;;;6.53;3.63;;;2.60;68.70;;;;;;6074463;23;115237;-84
2022/11/22 06:35:32;;;;;;;5.78;3.55;;;2.60;68.40;;;;;;6075429;23;114565;-83
2022/11/22 06:37:59;;;;;;;7.88;4.28;;;2.60;68.30;;;;;;6052888;23;114274;-84
2022/11/22 06:40:29;;;;;;;8.27;4.97;;;2.60;68.30;;;;;;6077134;23;114575;-83
2022/11/22 06:42:56;;;;;;;8.50;4.68;;;2.60;68.10;;;;;;6075210;23;115019;-84
2022/11/22 06:45:23;;;;;;;6.30;3.67;;;2.60;68.20;;;;;;6075614;23;114605;-84
2022/11/22 06:47:50;;;;;;;7.10;4.40;;;2.50;68.00;;;;;;6053622;23;114492;-84
2022/11/22 06:50:17;;;;;;;8.85;4.13;;;2.60;67.90;;;;;;6054610;23;114083;-84
2022/11/22 06:52:51;;;;;;;7.07;4.30;;;2.70;68.00;;;;;;6075945;23;115095;-83
2022/11/22 06:55:18;;;;;;;7.03;4.32;;;2.70;67.90;;;;;;6075669;23;114587;-84
2022/11/22 06:58:05;;;;;;;6.55;3.97;;;2.90;67.90;;;;;;6053478;23;114082;-83
2022/11/22 07:00:32;;;;;;;4.97;3.35;;;3.10;67.80;;;;;;6076707;23;114451;-84
2022/11/22 07:02:59;;;;;;;5.20;3.03;;;3.20;67.50;;;;;;6076610;23;114917;-83
2022/11/22 07:05:26;;;;;;;6.93;3.38;;;3.20;67.10;;;;;;6054243;23;115455;-83
2022/11/22 07:07:53;;;;;;;9.93;3.75;;;3.20;67.00;;;;;;6077403;23;114479;-82
2022/11/22 07:10:28;;;;;;;7.40;3.13;;;3.30;66.60;;;;;;6075861;23;114406;-83
2022/11/22 07:12:55;;;;;;;8.65;3.75;;;3.40;66.20;;;;;;6052720;23;114851;-84
2022/11/22 07:15:22;;;;;;;5.88;3.10;;;3.40;65.50;;;;;;6053078;23;114372;-83
2022/11/22 07:17:49;;;;;;;6.30;3.40;;;3.50;65.70;;;;;;6051516;23;114229;-83
2022/11/22 07:20:16;;;;;;;6.22;3.65;;;3.50;65.40;;;;;;6052158;23;114356;-83
2022/11/22 07:22:43;;;;;;;8.82;3.92;;;3.60;65.50;;;;;;6074975;23;115246;-83
2022/11/22 07:25:10;;;;;;;6.47;3.42;;;3.70;65.40;;;;;;6026812;23;114559;-84
2022/11/22 07:27:37;;;;;;;19.67;11.13;;;3.80;65.40;;;;;;6054471;23;114082;-83
2022/11/22 07:30:05;;;;;;;5.57;3.22;;;3.90;65.20;;;;;;6060518;23;114224;-84
2022/11/22 07:32:32;;;;;;;6.35;3.45;;;4.00;64.50;;;;;;6096400;23;114452;-84
2022/11/22 07:35:00;;;;;;;7.57;3.70;;;4.10;64.30;;;;;;6078067;23;114564;-84
2022/11/22 07:37:30;;;;;;;5.63;2.88;;;4.20;64.10;;;;;;6055304;23;114312;-84
2022/11/22 07:39:57;;;;;;;7.55;3.80;;;4.30;63.80;;;;;;6029380;23;114585;-84
2022/11/22 07:42:24;;;;;;;6.97;3.53;;;4.30;63.90;;;;;;6053341;23;115242;-84
2022/11/22 07:44:52;;;;;;;7.43;3.70;;;4.40;62.80;;;;;;6054411;23;114676;-84
2022/11/22 07:47:19;;;;;;;9.40;4.20;;;4.30;62.60;;;;;;6054620;23;114084;-84
2022/11/22 07:49:49;;;;;;;7.80;3.97;;;4.40;62.90;;;;;;6012031;23;114395;-83
2022/11/22 07:52:16;;;;;;;7.25;3.50;;;4.40;62.60;;;;;;6066747;23;114853;-84
2022/11/22 07:54:43;;;;;;;8.77;4.45;;;4.50;62.30;;;;;;6053370;23;114686;-84
2022/11/22 07:57:10;;;;;;;8.48;4.47;;;4.50;62.20;;;;;;6053410;23;114339;-84
2022/11/22 07:59:37;;;;;;;10.02;4.70;;;4.60;62.30;;;;;;6102276;23;114576;-85
2022/11/22 08:02:04;;;;;;;6.10;3.38;;;4.60;61.10;;;;;;6101259;23;114800;-85
2022/11/22 08:04:32;;;;;;;9.90;5.40;;;4.50;61.20;;;;;;6052174;23;115084;-84
2022/11/22 08:06:59;;;;;;;8.57;4.90;;;4.50;61.90;;;;;;6028057;23;114543;-85
2022/11/22 08:09:26;;;;;;;11.27;4.70;;;4.60;61.80;;;;;;6053461;23;114357;-84
2022/11/22 08:11:53;;;;;;;8.23;4.78;;;4.70;61.50;;;;;;6050776;23;117665;-83
2022/11/22 08:14:20;;;;;;;11.07;5.38;;;4.60;60.40;;;;;;6051640;23;115881;-84
2022/11/22 08:16:47;;;;;;;9.73;4.60;;;4.60;61.20;;;;;;6054831;23;114188;-84
2022/11/22 08:19:16;;;;;;;10.80;5.45;;;4.70;61.20;;;;;;6053205;23;114586;-84
2022/11/22 08:21:44;;;;;;;12.75;6.20;;;4.80;61.00;;;;;;6053541;23;114769;-84
2022/11/22 08:24:12;;;;;;;9.00;4.60;;;4.80;60.70;;;;;;6101008;23;114578;-84
2022/11/22 08:26:39;;;;;;;10.50;5.60;;;4.80;60.50;;;;;;6102544;23;114157;-84
2022/11/22 08:29:07;;;;;;;11.05;5.60;;;4.80;60.50;;;;;;6055008;23;114021;-84
2022/11/22 08:31:40;;;;;;;9.40;5.22;;;4.70;60.40;;;;;;6098335;23;116092;-86
2022/11/22 08:34:07;;;;;;;7.03;3.70;;;4.80;60.70;;;;;;6054004;23;115746;-84
2022/11/22 08:36:34;;;;;;;9.48;4.88;;;4.80;60.50;;;;;;6054320;23;114205;-85
2022/11/22 08:39:01;;;;;;;6.55;3.45;;;4.80;60.70;;;;;;6054384;23;114290;-84
2022/11/22 08:41:28;;;;;;;9.05;3.63;;;4.90;60.40;;;;;;6099845;23;114804;-84
2022/11/22 08:43:55;;;;;;;6.05;3.05;;;5.00;60.60;;;;;;6100581;23;114655;-84
2022/11/22 08:46:22;;;;;;;7.35;3.58;;;5.10;60.40;;;;;;6052877;23;114348;-84
2022/11/22 08:48:50;;;;;;;5.95;3.35;;;5.10;60.40;;;;;;6054881;23;114196;-85
2022/11/22 08:51:19;;;;;;;5.63;3.28;;;5.20;60.20;;;;;;6100687;23;117021;-82
2022/11/22 08:53:47;;;;;;;6.85;3.28;;;5.20;59.40;;;;;;6052016;23;118433;-83
2022/11/22 08:56:14;;;;;;;6.80;3.20;;;5.20;60.20;;;;;;6101939;23;114222;-83
2022/11/22 08:58:41;;;;;;;4.60;2.70;;;5.20;60.00;;;;;;6102061;23;114202;-84
2022/11/22 09:01:10;;;;;;;6.00;3.35;;;5.30;60.10;;;;;;6052537;23;114903;-83
2022/11/22 09:03:37;;;;;;;7.22;4.20;;;5.40;59.80;;;;;;6100802;23;114623;-83
2022/11/22 09:06:08;;;;;;;7.25;4.07;;;5.50;58.90;;;;;;6077374;23;114302;-84
2022/11/22 09:08:55;;;;;;;7.10;3.22;;;5.50;59.10;;;;;;6054425;23;114540;-83
2022/11/22 09:11:42;;;;;;;6.22;3.33;;;5.50;58.90;;;;;;6092561;23;116137;-83
2022/11/22 09:14:09;;;;;;;6.75;2.90;;;5.60;58.90;;;;;;6076496;23;114574;-83
2022/11/22 09:16:36;;;;;;;6.07;3.60;;;5.60;58.50;;;;;;6059398;23;114472;-82
2022/11/22 09:19:03;;;;;;;6.43;2.97;;;5.60;58.60;;;;;;6106666;23;114055;-83
2022/11/22 09:21:30;;;;;;;4.65;2.65;;;5.70;58.70;;;;;;6076236;23;117684;-83
2022/11/22 09:23:57;;;;;;;6.05;3.03;;;5.70;58.30;;;;;;6053755;23;114532;-82
2022/11/22 09:26:24;;;;;;;5.35;2.60;;;5.70;58.30;;;;;;6074478;23;114361;-83
2022/11/22 09:28:52;;;;;;;6.13;3.58;;;5.70;57.90;;;;;;6053552;23;114303;-85
2022/11/22 09:31:21;;;;;;;7.07;3.50;;;5.80;58.40;;;;;;6052991;23;115506;-84
2022/11/22 09:33:48;;;;;;;5.30;2.78;;;5.90;57.70;;;;;;6076364;23;114671;-84
2022/11/22 09:36:22;;;;;;;6.70;3.33;;;5.90;57.50;;;;;;6054254;23;114320;-85
2022/11/22 09:38:49;;;;;;;;;;;5.90;57.50;;;;;;6102331;23;115333;-85
2022/11/22 09:41:41;;;;;;;4.78;2.63;;;5.90;57.70;;;;;;6052904;23;114887;-84
2022/11/22 09:44:32;;;;;;;5.35;2.75;;;5.90;56.70;;;;;;6053236;23;114820;-84
2022/11/22 09:47:16;;;;;;;5.00;3.05;;;5.90;56.70;;;;;;6051160;23;114848;-84
2022/11/22 09:49:54;;;;;;;6.18;2.92;;;5.90;57.20;;;;;;6052518;23;114385;-85
2022/11/22 09:52:29;;;;;;;5.47;2.90;;;6.10;56.90;;;;;;6098824;23;114872;-85
2022/11/22 09:55:02;;;;;;;7.43;3.65;;;6.00;56.90;;;;;;6075238;23;114608;-85
2022/11/22 09:57:36;;;;;;;6.82;3.30;;;6.00;56.90;;;;;;6054502;23;114951;-84
2022/11/22 10:00:15;;;;;;;5.97;3.33;;;5.90;56.90;;;;;;6076594;23;114917;-84
2022/11/22 10:02:44;;;;;;;6.22;3.20;;;5.90;57.00;;;;;;6073837;23;114861;-84
2022/11/22 10:05:32;;;;;;;5.97;3.10;;;5.80;57.30;;;;;;6072639;23;114536;-83
2022/11/22 10:08:24;;;;;;;5.28;3.30;;;5.70;57.00;;;;;;6075275;23;114250;-83
2022/11/22 10:10:52;;;;;;;5.32;3.03;;;5.70;57.40;;;;;;6055766;23;114410;-83
2022/11/22 10:13:42;;;;;;;6.45;3.83;;;5.70;57.40;;;;;;6053612;23;115483;-84
2022/11/22 10:16:10;;;;;;;9.32;3.53;;;5.70;57.80;;;;;;6073832;23;114656;-85
2022/11/22 10:18:39;;;;;;;6.53;3.25;;;5.70;57.90;;;;;;6103342;23;114378;-84
2022/11/22 10:21:13;;;;;;;5.88;3.33;;;5.70;57.70;;;;;;6107352;23;114358;-83
2022/11/22 10:23:41;;;;;;;6.15;3.40;;;5.80;57.50;;;;;;6102304;23;115472;-83
2022/11/22 10:26:17;;;;;;;7.13;3.85;;;5.70;57.10;;;;;;6055803;23;114586;-84
2022/11/22 10:28:50;;;;;;;8.60;3.42;;;5.70;57.20;;;;;;6079658;23;114372;-85
2022/11/22 10:31:39;;;;;;;7.28;3.28;;;5.70;57.20;;;;;;6055277;23;114265;-84
2022/11/22 10:34:34;;;;;;;6.05;3.90;;;5.70;57.20;;;;;;6093631;23;117610;-84
2022/11/22 10:37:05;;;;;;;5.97;3.35;;;5.70;56.90;;;;;;6058012;23;114619;-84
2022/11/22 10:39:39;;;;;;;8.98;3.38;;;5.70;57.40;;;;;;6106624;23;114395;-84
2022/11/22 10:42:28;;;;;;;5.72;3.38;;;5.60;57.50;;;;;;6104255;23;114248;-84
2022/11/22 10:45:09;;;;;;;5.85;3.03;;;5.70;57.40;;;;;;6052840;23;115671;-84
2022/11/22 10:48:01;;;;;;;5.95;3.60;;;5.70;57.50;;;;;;6075033;23;114871;-83
2022/11/22 10:50:34;;;;;;;7.18;4.22;;;5.60;57.70;;;;;;6052658;23;114903;-84
2022/11/22 10:53:05;;;;;;;6.40;3.33;;;5.70;58.00;;;;;;6099130;23;114618;-84
2022/11/22 10:55:35;;;;;;;8.40;5.10;;;5.60;57.80;;;;;;6050504;23;115458;-84
2022/11/22 10:58:33;;;;;;;8.35;4.63;;;5.70;58.10;;;;;;6074744;23;114569;-83
2022/11/22 11:01:29;;;;;;;8.07;4.65;;;5.70;58.00;;;;;;6058415;23;114694;-84
2022/11/22 11:03:59;;;;;;;10.85;5.25;;;5.70;58.20;;;;;;6069833;23;114268;-83
2022/11/22 11:06:33;;;;;;;13.07;5.57;;;5.70;58.50;;;;;;6078379;23;116532;-83
2022/11/22 11:09:22;;;;;;;11.15;5.50;;;5.70;58.70;;;;;;6091523;23;115122;-83
2022/11/22 11:12:13;;;;;;;10.32;5.70;;;5.70;58.40;;;;;;6074458;23;114219;-83
2022/11/22 11:14:44;;;;;;;11.50;5.35;;;5.70;58.80;;;;;;6102927;23;114216;-83
2022/11/22 11:17:17;;;;;;;13.50;5.57;;;5.80;58.80;;;;;;6076449;23;114853;-83
2022/11/22 11:19:44;;;;;;;10.30;5.43;;;5.80;58.60;;;;;;6078305;23;114665;-83
2022/11/22 11:22:17;;;;;;;11.73;4.95;;;5.80;58.80;;;;;;6104016;23;114539;-83
2022/11/22 11:25:42;;;;;;;9.75;5.35;;;5.80;58.70;;;;;;6079966;23;114491;-83
2022/11/22 11:28:27;;;;;;;9.07;5.05;;;5.90;58.60;;;;;;6000926;23;115176;-84
2022/11/22 11:31:05;;;;;;;8.65;5.05;;;5.90;58.80;;;;;;6051551;23;114522;-84
2022/11/22 11:33:36;;;;;;;8.05;4.53;;;5.90;58.80;;;;;;6078269;23;114197;-83
2022/11/22 11:36:18;;;;;;;11.15;5.57;;;5.90;58.80;;;;;;6103359;23;115485;-83
2022/11/22 11:38:45;;;;;;;8.45;4.47;;;5.80;58.90;;;;;;6104761;23;114940;-83
2022/11/22 11:41:32;;;;;;;9.80;5.18;;;5.80;58.70;;;;;;6054856;23;114527;-83
2022/11/22 11:44:03;;;;;;;10.90;5.43;;;5.90;58.60;;;;;;6055855;23;114339;-83
2022/11/22 11:46:39;;;;;;;7.38;4.20;;;5.90;58.70;;;;;;6077747;23;114178;-83
2022/11/22 11:49:17;;;;;;;8.15;4.25;;;5.90;58.50;;;;;;6102146;23;115417;-83
2022/11/22 11:52:03;;;;;;;9.70;4.93;;;5.90;58.20;;;;;;6053486;23;114696;-83
2022/11/22 11:54:45;;;;;;;7.15;4.20;;;5.90;58.40;;;;;;6101836;23;114140;-82
2022/11/22 11:57:15;;;;;;;9.27;4.75;;;6.00;58.30;;;;;;6054040;23;114107;-82
2022/11/22 11:59:47;;;;;;;9.63;5.60;;;6.00;58.30;;;;;;6051584;23;114982;-83
2022/11/22 12:02:26;;;;;;;9.15;5.25;;;6.10;58.40;;;;;;6053049;23;114533;-83
2022/11/22 12:05:03;;;;;;;8.85;4.63;;;6.20;57.80;;;;;;6050676;23;114436;-84
2022/11/22 12:07:33;;;;;;;8.35;4.65;;;6.10;58.00;;;;;;6075702;23;114470;-83
2022/11/22 12:10:26;;;;;;;7.75;5.15;;;6.10;57.50;;;;;;6053236;23;115170;-83
2022/11/22 12:12:59;;;;;;;12.00;5.85;;;6.00;57.50;;;;;;6071049;23;118758;-84
2022/11/22 12:15:42;;;;;;;11.18;5.60;;;6.00;57.80;;;;;;6055221;23;114349;-83
2022/11/22 12:18:31;;;;;;;11.55;6.25;;;5.90;58.00;;;;;;6053944;23;114474;-83
2022/11/22 12:21:27;;;;;;;11.10;6.30;;;5.90;57.90;;;;;;6053559;23;114870;-83
2022/11/22 12:24:04;;;;;;;12.18;6.70;;;5.90;58.10;;;;;;6072412;23;114571;-83
2022/11/22 12:26:52;;;;;;;12.45;6.93;;;5.90;58.20;;;;;;6073590;23;114552;-84
2022/11/22 12:29:20;;;;;;;11.52;6.32;;;5.80;58.40;;;;;;6102719;23;114124;-83
2022/11/22 12:31:58;;;;;;;12.48;6.60;;;5.90;58.50;;;;;;6075271;23;114919;-83
2022/11/22 12:34:37;;;;;;;10.35;6.38;;;5.90;58.50;;;;;;6075325;23;117708;-83
2022/11/22 12:37:10;;;;;;;10.73;6.53;;;5.90;58.60;;;;;;6077528;23;114366;-83
2022/11/22 12:39:41;;;;;;;11.60;6.50;;;6.00;58.60;;;;;;6101729;23;114467;-83
2022/11/22 12:42:57;;;;;;;13.45;7.82;;;6.00;58.70;;;;;;6077353;23;116295;-83
2022/11/22 12:45:37;;;;;;;13.52;6.65;;;6.00;58.60;;;;;;6044518;23;114837;-83
2022/11/22 12:48:07;;;;;;;28.27;17.02;;;6.00;58.90;;;;;;6076925;23;114298;-84
2022/11/22 12:50:41;;;;;;;16.20;12.20;;;6.00;58.80;;;;;;6053916;23;114462;-84
2022/11/22 12:53:26;;;;;;;14.77;8.40;;;6.00;58.70;;;;;;6102184;23;114791;-84
2022/11/22 12:56:22;;;;;;;12.27;6.97;;;6.10;58.70;;;;;;6054668;23;115126;-84
2022/11/22 12:59:10;;;;;;;11.38;6.95;;;6.10;58.80;;;;;;6078292;23;114295;-84
2022/11/22 13:01:40;;;;;;;13.07;7.68;;;6.20;58.80;;;;;;6055010;23;114501;-83
2022/11/22 13:04:29;;;;;;;15.63;8.07;;;6.20;58.50;;;;;;6101502;23;117952;-83
2022/11/22 13:07:23;;;;;;;10.05;6.25;;;6.20;58.70;;;;;;6049658;23;118519;-84
2022/11/22 13:09:59;;;;;;;10.90;6.53;;;6.20;58.20;;;;;;6047358;23;114271;-84
2022/11/22 13:12:33;;;;;;;8.73;5.50;;;6.20;58.00;;;;;;6050545;23;114561;-84
2022/11/22 13:15:00;;;;;;;10.45;5.85;;;6.20;57.50;;;;;;6024978;23;118353;-84
2022/11/22 13:17:32;;;;;;;14.10;6.28;;;6.20;57.70;;;;;;6024198;23;115687;-83
2022/11/22 13:20:07;;;;;;;8.98;5.35;;;6.20;57.60;;;;;;6002164;23;114267;-82